Time;durP1;ratioP1;P1;durP2;ratioP2;P2;SDS_P1;SDS_P2;PMS_P1;PMS_P2;Temp;Humidity;BMP_temperature;BMP_pressure;BME280_temperature;BME280_humidity;BME280_pressure;Samples;Min_cycle;Max_cycle;Signal;HPM_P1;HPM_P2
2021/05/27 00:01:15;;;;;;;4.00;1.50;;;17.60;66.50;;;;;;10543283;28;20166;-55
2021/05/27 00:06:16;;;;;;;3.40;1.50;;;17.60;66.50;;;;;;10524257;28;20030;-54
2021/05/27 00:11:17;;;;;;;4.40;1.90;;;17.60;66.50;;;;;;10542167;28;20511;-56
2021/05/27 00:16:17;;;;;;;2.90;1.80;;;17.60;66.50;;;;;;10541930;28;20038;-55
2021/05/27 00:21:20;;;;;;;3.28;2.00;;;17.60;66.50;;;;;;10570093;28;20028;-56
2021/05/27 00:26:20;;;;;;;2.42;1.60;;;17.50;66.40;;;;;;10552353;28;20024;-55
2021/05/27 00:31:21;;;;;;;3.10;1.60;;;17.60;66.40;;;;;;10543195;28;20127;-56
2021/05/27 00:36:22;;;;;;;3.53;2.00;;;17.60;66.40;;;;;;10563458;28;20052;-56
2021/05/27 00:41:22;;;;;;;2.67;1.73;;;17.60;66.30;;;;;;10523013;28;20059;-56
2021/05/27 00:46:23;;;;;;;4.10;1.77;;;17.60;66.30;;;;;;10550746;28;20106;-55
2021/05/27 00:51:26;;;;;;;2.78;1.88;;;17.60;66.30;;;;;;10552570;28;20046;-56
2021/05/27 00:56:27;;;;;;;4.60;1.83;;;17.60;66.30;;;;;;10540433;28;20047;-55
2021/05/27 01:01:27;;;;;;;5.70;2.72;;;17.60;66.30;;;;;;10560565;28;20043;-55
2021/05/27 01:06:28;;;;;;;3.28;2.05;;;17.60;66.30;;;;;;10539950;28;20090;-56
2021/05/27 01:11:30;;;;;;;4.65;2.15;;;17.60;66.30;;;;;;10539782;28;20089;-56
2021/05/27 01:16:30;;;;;;;4.60;2.20;;;17.60;66.20;;;;;;10540003;28;20032;-56
2021/05/27 01:21:33;;;;;;;5.95;2.67;;;17.60;66.20;;;;;;10553364;28;20365;-55
2021/05/27 01:26:33;;;;;;;3.33;1.75;;;17.60;66.10;;;;;;10539084;28;20040;-55
2021/05/27 01:31:34;;;;;;;2.97;1.77;;;17.60;66.00;;;;;;10575361;28;20383;-55
2021/05/27 01:36:35;;;;;;;3.10;1.85;;;17.60;66.00;;;;;;10557623;28;20090;-56
2021/05/27 01:41:36;;;;;;;4.13;1.85;;;17.60;66.00;;;;;;10539165;28;20369;-56
2021/05/27 01:46:36;;;;;;;4.30;2.33;;;17.60;66.00;;;;;;10550846;28;20027;-56
2021/05/27 01:51:37;;;;;;;2.92;2.17;;;17.60;66.00;;;;;;10540552;28;20040;-56
2021/05/27 01:56:38;;;;;;;4.18;1.90;;;17.60;66.00;;;;;;10538657;28;20119;-56
2021/05/27 02:01:38;;;;;;;4.25;2.17;;;17.60;66.00;;;;;;10539266;28;20032;-55
2021/05/27 02:06:39;;;;;;;3.08;1.85;;;17.60;65.90;;;;;;10538586;28;20027;-56
2021/05/27 02:11:43;;;;;;;2.88;1.85;;;17.60;66.00;;;;;;10538455;28;20039;-56
2021/05/27 02:16:44;;;;;;;2.95;1.88;;;17.60;66.00;;;;;;10519811;28;20111;-56
2021/05/27 02:21:44;;;;;;;3.35;2.30;;;17.60;65.90;;;;;;10535526;28;20522;-55
2021/05/27 02:26:45;;;;;;;3.63;1.95;;;17.60;65.90;;;;;;10558342;28;20055;-56
2021/05/27 02:31:47;;;;;;;4.78;1.88;;;17.60;65.90;;;;;;10538305;28;20422;-54
2021/05/27 02:36:47;;;;;;;3.42;1.90;;;17.60;65.90;;;;;;10537792;28;20123;-56
2021/05/27 02:41:48;;;;;;;2.75;1.92;;;17.60;65.90;;;;;;10544325;28;20533;-56
2021/05/27 02:46:49;;;;;;;3.85;2.22;;;17.60;65.90;;;;;;10540961;28;20028;-55
2021/05/27 02:51:50;;;;;;;2.63;1.90;;;17.60;65.90;;;;;;10572520;28;20361;-56
2021/05/27 02:56:50;;;;;;;3.97;2.08;;;17.60;65.80;;;;;;10545474;28;20111;-56
2021/05/27 03:01:51;;;;;;;2.72;1.98;;;17.60;65.80;;;;;;10563733;28;20119;-56
2021/05/27 03:06:52;;;;;;;3.22;1.85;;;17.60;65.90;;;;;;10526941;28;20472;-54
2021/05/27 03:11:54;;;;;;;2.88;1.92;;;17.60;65.90;;;;;;10544687;28;20031;-55
2021/05/27 03:16:55;;;;;;;4.60;2.38;;;17.60;65.80;;;;;;10544922;28;20085;-55
2021/05/27 03:21:56;;;;;;;4.85;2.10;;;17.60;65.80;;;;;;10542116;28;20028;-55
2021/05/27 03:26:56;;;;;;;3.03;1.85;;;17.60;65.80;;;;;;10544405;28;20073;-55
2021/05/27 03:31:57;;;;;;;3.13;2.13;;;17.60;65.80;;;;;;10550844;28;20030;-56
2021/05/27 03:36:58;;;;;;;3.10;2.00;;;17.60;65.80;;;;;;10585184;28;20039;-56
2021/05/27 03:41:59;;;;;;;3.58;2.03;;;17.60;65.80;;;;;;10584918;28;20038;-55
2021/05/27 03:47:00;;;;;;;2.20;1.60;;;17.60;65.70;;;;;;10580938;28;20135;-56
2021/05/27 03:52:00;;;;;;;3.45;1.77;;;17.60;65.70;;;;;;10539387;28;20107;-56
2021/05/27 03:57:01;;;;;;;3.67;1.88;;;17.60;65.70;;;;;;10543160;28;20532;-56
2021/05/27 04:02:02;;;;;;;3.35;2.00;;;17.60;65.70;;;;;;10530678;28;20088;-56
2021/05/27 04:07:15;;;;;;;2.50;1.90;;;17.60;65.70;;;;;;10584824;28;20470;-55
2021/05/27 04:17:35;;;;;;;2.80;1.93;;;17.60;65.70;;;;;;10566428;28;20040;-54
2021/05/27 04:22:38;;;;;;;3.00;2.00;;;17.60;65.60;;;;;;10543904;28;20411;-56
2021/05/27 04:27:40;;;;;;;2.67;2.00;;;17.60;65.70;;;;;;10523853;28;20036;-55
2021/05/27 04:33:07;;;;;;;2.95;1.88;;;17.60;65.70;;;;;;10561673;28;20036;-55
2021/05/27 04:38:12;;;;;;;4.05;2.30;;;17.60;65.70;;;;;;10541348;28;20044;-54
2021/05/27 04:43:15;;;;;;;2.40;1.75;;;17.60;65.60;;;;;;10556070;28;20032;-55
2021/05/27 04:48:17;;;;;;;2.33;1.70;;;17.60;65.60;;;;;;10561111;28;20032;-56
2021/05/27 04:53:22;;;;;;;4.25;2.22;;;17.60;65.60;;;;;;10573295;28;20028;-56
2021/05/27 04:58:23;;;;;;;3.38;2.10;;;17.60;65.60;;;;;;10555695;28;20040;-53
2021/05/27 05:03:24;;;;;;;9.35;2.85;;;17.60;65.70;;;;;;10527053;28;20016;-56
2021/05/27 05:08:24;;;;;;;6.07;2.30;;;17.60;67.00;;;;;;10545212;28;20456;-57
2021/05/27 05:13:25;;;;;;;10.60;3.20;;;17.60;67.10;;;;;;10564352;28;20031;-56
2021/05/27 05:18:26;;;;;;;5.32;2.03;;;17.70;67.00;;;;;;10562810;28;20430;-56
2021/05/27 05:23:26;;;;;;;6.35;2.10;;;17.70;67.40;;;;;;10564523;28;20065;-56
2021/05/27 05:28:27;;;;;;;6.75;2.63;;;17.70;67.50;;;;;;10558050;28;20047;-55
2021/05/27 05:33:28;;;;;;;9.77;2.72;;;17.70;67.70;;;;;;10562090;28;20045;-56
2021/05/27 05:38:29;;;;;;;10.02;2.42;;;17.70;67.60;;;;;;10544691;28;20036;-56
2021/05/27 05:43:29;;;;;;;6.13;3.00;;;17.70;67.90;;;;;;10538790;28;20103;-58
2021/05/27 05:48:30;;;;;;;10.02;2.55;;;17.70;67.40;;;;;;10552412;28;20045;-58
2021/05/27 05:53:31;;;;;;;11.10;3.38;;;17.70;67.10;;;;;;10554036;28;20102;-58
2021/05/27 05:58:32;;;;;;;6.70;2.72;;;17.70;67.10;;;;;;10563383;28;20031;-58
2021/05/27 06:03:34;;;;;;;7.03;2.83;;;17.60;66.90;;;;;;10520247;28;20028;-58
2021/05/27 06:08:35;;;;;;;11.48;2.58;;;17.60;66.80;;;;;;10543582;28;20165;-58
2021/05/27 06:13:36;;;;;;;6.38;2.38;;;17.60;66.80;;;;;;10580891;28;20391;-57
2021/05/27 06:18:37;;;;;;;13.32;3.40;;;17.60;66.80;;;;;;10551660;28;20028;-58
2021/05/27 06:23:37;;;;;;;4.65;2.58;;;17.60;66.90;;;;;;10569917;28;20468;-57
2021/05/27 06:28:38;;;;;;;5.40;2.50;;;17.50;66.90;;;;;;10543575;28;20059;-57
2021/05/27 06:33:39;;;;;;;6.07;2.60;;;17.50;66.80;;;;;;10544582;28;20047;-58
2021/05/27 06:38:39;;;;;;;3.67;2.40;;;17.50;66.70;;;;;;10542397;28;20047;-57
2021/05/27 06:43:40;;;;;;;7.03;2.95;;;17.50;66.70;;;;;;10543170;28;20059;-58
2021/05/27 06:48:41;;;;;;;5.07;2.20;;;17.50;66.70;;;;;;10547909;28;20034;-58
2021/05/27 06:53:42;;;;;;;5.82;3.28;;;17.50;66.70;;;;;;10545390;28;20104;-58
2021/05/27 06:58:42;;;;;;;5.30;2.38;;;17.50;66.60;;;;;;10544667;28;20051;-58
2021/05/27 07:03:43;;;;;;;5.72;2.78;;;17.50;66.50;;;;;;10545126;28;20059;-58
2021/05/27 07:08:44;;;;;;;9.20;2.83;;;17.50;66.50;;;;;;10547975;28;20031;-57
2021/05/27 07:13:45;;;;;;;4.40;3.00;;;17.50;66.50;;;;;;10583256;28;20024;-58
2021/05/27 07:18:45;;;;;;;4.28;2.30;;;17.50;66.40;;;;;;10562233;28;20458;-58
2021/05/27 07:23:46;;;;;;;3.50;2.10;;;17.60;66.40;;;;;;10580419;28;20035;-58
2021/05/27 07:28:47;;;;;;;5.70;2.63;;;17.60;66.30;;;;;;10538607;28;20034;-58
2021/05/27 07:33:48;;;;;;;5.80;2.15;;;17.60;66.20;;;;;;10558937;28;20099;-58
2021/05/27 07:38:48;;;;;;;4.40;2.38;;;17.60;66.20;;;;;;10543683;28;20126;-58
2021/05/27 07:43:50;;;;;;;4.00;2.30;;;17.60;66.20;;;;;;10531311;28;20051;-57
2021/05/27 07:48:51;;;;;;;4.20;2.50;;;17.50;66.70;;;;;;10584750;28;20028;-58
2021/05/27 07:53:52;;;;;;;4.40;2.60;;;17.50;66.10;;;;;;10566615;28;20501;-58
2021/05/27 07:58:54;;;;;;;4.15;2.40;;;17.50;66.20;;;;;;10584973;28;20042;-58
2021/05/27 08:03:54;;;;;;;3.63;2.38;;;17.50;66.70;;;;;;10584483;28;20022;-58
2021/05/27 08:08:55;;;;;;;4.43;2.17;;;17.50;66.10;;;;;;10584371;28;20398;-58
2021/05/27 08:13:56;;;;;;;4.07;2.58;;;17.60;66.10;;;;;;10582969;28;20228;-58
2021/05/27 08:18:56;;;;;;;4.82;2.45;;;17.60;66.00;;;;;;10551409;28;20056;-58
2021/05/27 08:23:58;;;;;;;5.40;2.42;;;17.60;66.00;;;;;;10576662;28;20102;-58
2021/05/27 08:28:58;;;;;;;5.03;2.45;;;17.60;65.90;;;;;;10565292;28;20455;-58
2021/05/27 08:33:59;;;;;;;4.40;2.80;;;17.60;65.90;;;;;;10564913;28;20028;-57
2021/05/27 08:39:00;;;;;;;4.28;2.55;;;17.60;65.90;;;;;;10582944;28;20092;-57
2021/05/27 08:44:03;;;;;;;7.40;2.80;;;17.60;65.80;;;;;;10582693;28;20102;-58
2021/05/27 08:49:05;;;;;;;4.75;2.72;;;17.60;65.70;;;;;;10582698;28;20043;-58
2021/05/27 08:54:06;;;;;;;4.43;2.40;;;17.60;65.70;;;;;;10564289;28;20027;-58
2021/05/27 08:59:07;;;;;;;4.97;2.33;;;17.60;65.70;;;;;;10582174;28;20444;-58
2021/05/27 09:04:07;;;;;;;3.47;1.83;;;17.60;65.80;;;;;;10582175;28;20031;-58
2021/05/27 09:09:08;;;;;;;4.35;1.85;;;17.60;65.80;;;;;;10563687;28;20106;-58
2021/05/27 09:14:09;;;;;;;4.05;2.40;;;17.60;65.80;;;;;;10581410;28;20081;-58
2021/05/27 09:19:19;;;;;;;3.50;2.10;;;17.50;65.80;;;;;;10546987;28;20052;-57
2021/05/27 09:24:46;;;;;;;5.93;2.40;;;17.50;65.80;;;;;;10577906;28;20043;-57
2021/05/27 09:29:49;;;;;;;7.72;2.20;;;17.50;65.90;;;;;;10581209;28;20042;-58
2021/05/27 09:34:52;;;;;;;4.93;2.72;;;17.50;65.90;;;;;;10581031;28;20040;-58
2021/05/27 09:39:54;;;;;;;3.47;2.00;;;17.50;65.90;;;;;;10580984;28;20074;-57
2021/05/27 09:44:55;;;;;;;4.63;2.28;;;17.50;66.00;;;;;;10581230;28;20050;-58
2021/05/27 09:50:02;;;;;;;5.35;2.58;;;17.50;65.90;;;;;;10579979;28;20475;-57
2021/05/27 09:55:11;;;;;;;6.18;2.55;;;17.50;66.00;;;;;;10557526;28;20036;-58
2021/05/27 10:00:29;;;;;;;3.55;2.10;;;17.50;65.90;;;;;;10538888;28;20021;-57
2021/05/27 10:05:29;;;;;;;3.53;2.38;;;17.50;65.90;;;;;;10538298;28;20059;-57
2021/05/27 10:10:30;;;;;;;4.32;2.20;;;17.50;65.90;;;;;;10538253;28;20111;-57
2021/05/27 10:15:32;;;;;;;3.63;1.95;;;17.50;65.90;;;;;;10551709;28;20093;-58
2021/05/27 10:20:33;;;;;;;3.10;2.05;;;17.50;65.80;;;;;;10544744;28;20534;-57
2021/05/27 10:25:34;;;;;;;3.92;2.08;;;17.50;65.80;;;;;;10579817;28;20099;-57
2021/05/27 10:30:41;;;;;;;3.75;2.95;;;17.60;65.80;;;;;;10567890;28;20491;-57
2021/05/27 10:35:55;;;;;;;4.60;2.22;;;17.60;65.70;;;;;;10579850;28;20103;-57
2021/05/27 10:40:56;;;;;;;5.65;2.20;;;17.60;66.30;;;;;;10561161;28;20510;-57
2021/05/27 10:46:02;;;;;;;4.50;2.80;;;17.50;65.70;;;;;;10565168;28;20094;-58
2021/05/27 10:51:10;;;;;;;4.32;2.22;;;17.50;65.80;;;;;;10554719;28;20047;-58
2021/05/27 10:56:15;;;;;;;3.15;2.00;;;17.50;65.80;;;;;;10561314;28;20383;-54
2021/05/27 11:01:20;;;;;;;5.55;2.63;;;17.50;66.10;;;;;;10560811;28;20035;-56
2021/05/27 11:06:27;;;;;;;4.78;2.85;;;17.50;66.00;;;;;;10550532;28;20034;-56
2021/05/27 11:11:47;;;;;;;5.25;2.72;;;17.50;66.10;;;;;;10571900;28;20035;-56
2021/05/27 11:27:58;;;;;;;4.30;2.17;;;17.50;66.10;;;;;;10567546;28;20063;-56
2021/05/27 11:33:14;;;;;;;4.95;2.25;;;17.50;66.10;;;;;;10552586;28;20024;-55
2021/05/27 11:38:18;;;;;;;4.90;2.85;;;17.50;66.10;;;;;;10568382;28;20131;-56
2021/05/27 11:43:30;;;;;;;5.50;2.58;;;17.50;66.10;;;;;;10567591;28;20556;-57
2021/05/27 11:48:38;;;;;;;5.40;2.92;;;17.50;66.00;;;;;;10567412;28;20491;-56
2021/05/27 11:53:54;;;;;;;5.18;2.33;;;17.50;66.00;;;;;;10566333;28;20507;-56
2021/05/27 11:58:55;;;;;;;3.88;2.10;;;17.50;66.00;;;;;;10546863;28;20023;-57
2021/05/27 12:04:15;;;;;;;5.00;2.33;;;17.50;66.00;;;;;;10563098;28;20012;-57
2021/05/27 12:09:26;;;;;;;;;;;17.50;66.00;;;;;;10578970;28;20035;-57
2021/05/27 12:14:26;;;;;;;5.90;2.50;;;17.50;66.00;;;;;;10526623;28;19918;-57
2021/05/27 12:19:27;;;;;;;5.43;2.83;;;17.50;66.10;;;;;;10546555;28;20028;-57
2021/05/27 12:24:29;;;;;;;3.33;1.98;;;17.50;66.20;;;;;;10556991;28;20032;-57
2021/05/27 12:29:30;;;;;;;4.55;2.45;;;17.50;66.20;;;;;;10541850;28;20044;-57
2021/05/27 12:34:31;;;;;;;3.70;2.58;;;17.50;66.20;;;;;;10541042;28;20032;-55
2021/05/27 12:39:34;;;;;;;4.47;2.45;;;17.50;66.20;;;;;;10546088;28;20443;-57
2021/05/27 12:44:42;;;;;;;4.07;2.40;;;17.50;66.20;;;;;;10558205;28;20083;-57
2021/05/27 12:49:44;;;;;;;3.67;1.95;;;17.40;66.20;;;;;;10543959;28;20028;-56
2021/05/27 12:54:45;;;;;;;4.57;2.13;;;17.50;66.30;;;;;;10544266;28;20032;-57
2021/05/27 12:59:57;;;;;;;3.78;2.10;;;17.50;66.30;;;;;;10540598;28;20044;-57
2021/05/27 13:05:16;;;;;;;3.70;2.13;;;17.50;66.30;;;;;;10539810;28;20036;-57
2021/05/27 13:10:44;;;;;;;3.90;2.15;;;17.50;66.40;;;;;;10564026;28;20027;-57
2021/05/27 13:15:49;;;;;;;3.40;1.83;;;17.50;66.40;;;;;;10566654;28;20042;-56
2021/05/27 13:21:03;;;;;;;5.40;2.40;;;17.40;66.40;;;;;;10572375;28;20028;-57
2021/05/27 13:26:17;;;;;;;6.18;3.13;;;17.40;66.40;;;;;;10549436;28;20464;-57
2021/05/27 13:31:35;;;;;;;2.45;1.70;;;17.40;66.50;;;;;;10543551;28;20111;-57
2021/05/27 13:36:45;;;;;;;3.92;2.10;;;17.40;66.40;;;;;;10561952;28;20027;-57
2021/05/27 13:41:47;;;;;;;5.55;2.60;;;17.40;66.60;;;;;;10516671;28;20058;-57
2021/05/27 13:46:52;;;;;;;2.83;1.95;;;17.40;66.30;;;;;;10538785;28;20024;-57
2021/05/27 13:51:54;;;;;;;2.88;1.90;;;17.40;66.30;;;;;;10539125;28;20468;-57
2021/05/27 13:56:55;;;;;;;5.53;2.03;;;17.50;66.40;;;;;;10551053;28;20103;-57
2021/05/27 14:01:55;;;;;;;2.88;2.00;;;17.50;66.40;;;;;;10520100;28;20036;-57
2021/05/27 14:06:58;;;;;;;5.13;2.17;;;17.50;67.00;;;;;;10520170;28;20048;-57
2021/05/27 14:11:59;;;;;;;4.78;2.10;;;17.50;66.40;;;;;;10520261;28;20100;-57
2021/05/27 14:17:00;;;;;;;5.28;2.63;;;17.50;67.00;;;;;;10540763;28;20038;-57
2021/05/27 14:22:01;;;;;;;5.28;2.00;;;17.50;66.30;;;;;;10564398;28;20028;-55
2021/05/27 14:27:04;;;;;;;3.47;2.03;;;17.40;66.30;;;;;;10573991;28;20462;-57
2021/05/27 14:32:04;;;;;;;3.65;1.67;;;17.40;66.30;;;;;;10530966;28;20115;-56
2021/05/27 14:37:05;;;;;;;3.58;1.77;;;17.40;66.30;;;;;;10545770;28;20107;-56
2021/05/27 14:42:06;;;;;;;3.08;2.08;;;17.40;66.20;;;;;;10545802;28;20094;-57
2021/05/27 14:47:06;;;;;;;5.30;1.75;;;17.40;66.20;;;;;;10560503;28;20031;-57
2021/05/27 14:52:07;;;;;;;4.78;2.83;;;17.40;66.30;;;;;;10587556;28;20077;-57
2021/05/27 14:57:08;;;;;;;3.28;1.85;;;17.50;66.20;;;;;;10587294;28;20375;-56
2021/05/27 15:02:09;;;;;;;5.45;2.30;;;17.40;66.10;;;;;;10587094;28;20340;-56
2021/05/27 15:07:09;;;;;;;3.55;1.77;;;17.50;66.20;;;;;;10586762;28;20062;-57
2021/05/27 15:12:16;;;;;;;2.53;1.65;;;17.50;66.20;;;;;;10568642;28;20019;-56
2021/05/27 15:17:17;;;;;;;3.10;1.77;;;17.50;66.20;;;;;;10581527;28;20046;-56
2021/05/27 15:22:18;;;;;;;4.03;1.80;;;17.40;66.10;;;;;;10576303;28;20088;-56
2021/05/27 15:27:20;;;;;;;2.97;1.70;;;17.40;66.10;;;;;;10544772;28;20035;-56
2021/05/27 15:32:20;;;;;;;2.88;1.77;;;17.50;66.20;;;;;;10562353;28;20025;-57
2021/05/27 15:37:21;;;;;;;3.78;1.80;;;17.50;66.20;;;;;;10585551;28;20394;-55
2021/05/27 15:42:25;;;;;;;3.35;1.58;;;17.40;66.10;;;;;;10585367;28;20062;-56
2021/05/27 15:47:26;;;;;;;2.92;1.30;;;17.50;66.20;;;;;;10556349;28;20448;-56
2021/05/27 15:52:27;;;;;;;3.25;1.50;;;17.50;66.10;;;;;;10572945;28;20055;-53
2021/05/27 15:57:27;;;;;;;3.28;1.45;;;17.50;66.10;;;;;;10549867;28;20048;-54
2021/05/27 16:02:29;;;;;;;130.57;94.38;;;17.50;66.10;;;;;;10569877;28;20563;-54
2021/05/27 16:07:30;;;;;;;125.95;81.28;;;17.60;68.10;;;;;;10545822;28;20027;-55
2021/05/27 16:12:31;;;;;;;104.93;68.32;;;17.60;68.00;;;;;;10545654;28;20030;-55
2021/05/27 16:17:31;;;;;;;92.13;54.28;;;17.60;67.90;;;;;;10578107;28;20067;-54
2021/05/27 16:22:33;;;;;;;71.85;43.17;;;17.60;67.00;;;;;;10545648;28;20064;-56
2021/05/27 16:27:36;;;;;;;61.90;30.98;;;17.60;66.30;;;;;;10542335;28;20437;-51
2021/05/27 16:32:37;;;;;;;52.92;29.15;;;17.70;67.90;;;;;;10547082;28;20560;-55
2021/05/27 16:43:02;;;;;;;50.33;27.85;;;17.80;68.00;;;;;;10542164;28;20032;-57
2021/05/27 16:48:04;;;;;;;54.28;27.40;;;17.80;68.20;;;;;;10553648;28;20043;-57
2021/05/27 16:53:05;;;;;;;45.92;26.27;;;17.80;68.20;;;;;;10523305;28;20119;-54
2021/05/27 16:58:06;;;;;;;43.15;25.77;;;17.80;68.20;;;;;;10564688;28;20039;-55
2021/05/27 17:03:07;;;;;;;48.92;23.05;;;17.90;68.10;;;;;;10531079;28;20089;-56
2021/05/27 17:08:08;;;;;;;44.55;22.70;;;17.80;67.60;;;;;;10522419;28;20036;-56
2021/05/27 17:13:09;;;;;;;44.97;20.15;;;17.80;67.50;;;;;;10538074;28;20047;-56
2021/05/27 17:18:10;;;;;;;48.95;21.05;;;17.80;67.40;;;;;;10527767;28;20031;-53
2021/05/27 17:23:10;;;;;;;43.38;20.08;;;17.80;67.40;;;;;;10549061;28;20031;-57
2021/05/27 17:28:11;;;;;;;39.90;19.70;;;17.70;68.00;;;;;;10539938;28;20112;-57
2021/05/27 17:33:12;;;;;;;38.35;19.80;;;17.70;69.30;;;;;;10544951;28;20036;-57
2021/05/27 17:38:13;;;;;;;40.45;20.23;;;17.70;68.80;;;;;;10539140;28;20484;-57
2021/05/27 17:43:17;;;;;;;32.25;17.13;;;17.70;68.70;;;;;;10529094;28;20112;-56
2021/05/27 17:48:17;;;;;;;36.25;17.35;;;17.70;68.80;;;;;;10568138;28;20032;-58
2021/05/27 17:53:19;;;;;;;38.47;17.98;;;17.70;69.00;;;;;;10559589;28;20058;-58
2021/05/27 17:58:19;;;;;;;31.95;17.00;;;17.70;69.40;;;;;;10556928;28;20039;-51
2021/05/27 18:03:20;;;;;;;32.75;15.88;;;17.70;68.90;;;;;;10542304;28;20334;-57
2021/05/27 18:08:22;;;;;;;30.85;16.10;;;17.70;68.80;;;;;;10555675;28;20111;-57
2021/05/27 18:13:23;;;;;;;28.92;15.60;;;17.70;68.70;;;;;;10572823;28;20063;-57
2021/05/27 18:18:24;;;;;;;30.40;14.52;;;17.70;68.70;;;;;;10547267;28;20119;-57
2021/05/27 18:23:25;;;;;;;28.65;15.63;;;17.70;68.50;;;;;;10560298;28;20132;-57
2021/05/27 18:28:26;;;;;;;29.08;13.65;;;17.60;68.40;;;;;;10546775;28;20119;-57
2021/05/27 18:33:27;;;;;;;25.02;13.93;;;17.60;68.30;;;;;;10577089;28;20024;-56
2021/05/27 18:38:28;;;;;;;23.45;12.85;;;17.60;68.20;;;;;;10546532;28;20040;-57
2021/05/27 18:43:29;;;;;;;20.67;12.20;;;17.60;68.20;;;;;;10527612;28;20024;-56
2021/05/27 18:48:30;;;;;;;24.50;13.25;;;17.50;68.20;;;;;;10550202;28;20023;-57
2021/05/27 18:53:31;;;;;;;27.95;13.07;;;17.50;68.20;;;;;;10551891;28;20028;-57
2021/05/27 18:58:32;;;;;;;24.58;12.80;;;17.50;68.10;;;;;;10545753;28;20479;-57
2021/05/27 19:03:32;;;;;;;18.73;11.27;;;17.50;68.00;;;;;;10527277;28;20099;-57
2021/05/27 19:08:33;;;;;;;22.13;11.48;;;17.50;67.90;;;;;;10545123;28;20112;-57
2021/05/27 19:13:34;;;;;;;21.77;11.75;;;17.50;67.80;;;;;;10562035;28;20067;-57
2021/05/27 19:18:35;;;;;;;21.05;10.48;;;17.50;67.70;;;;;;10534424;28;20501;-57
2021/05/27 19:23:36;;;;;;;22.48;10.63;;;17.50;67.70;;;;;;10569486;28;20034;-57
2021/05/27 19:28:37;;;;;;;17.02;9.73;;;17.50;67.60;;;;;;10574721;28;20024;-57
2021/05/27 19:33:39;;;;;;;17.88;10.02;;;17.50;67.60;;;;;;10548131;28;20032;-57
2021/05/27 19:38:39;;;;;;;16.38;9.73;;;17.50;67.40;;;;;;10544135;28;20469;-57
2021/05/27 19:43:40;;;;;;;18.10;10.95;;;17.60;67.40;;;;;;10527138;28;20116;-56
2021/05/27 19:48:42;;;;;;;20.55;9.57;;;17.60;67.30;;;;;;10535775;28;20043;-57
2021/05/27 19:53:43;;;;;;;18.08;9.00;;;17.50;67.50;;;;;;10563311;28;20504;-57
2021/05/27 19:58:44;;;;;;;22.10;8.93;;;17.60;67.30;;;;;;10567972;28;20032;-58
2021/05/27 20:03:44;;;;;;;13.20;7.70;;;17.60;67.10;;;;;;10537035;28;20120;-58
2021/05/27 20:08:45;;;;;;;16.95;8.73;;;17.60;67.00;;;;;;10563394;28;20047;-58
2021/05/27 20:13:46;;;;;;;17.80;8.50;;;17.60;67.00;;;;;;10566882;28;20024;-58
2021/05/27 20:18:47;;;;;;;18.08;8.20;;;17.60;66.90;;;;;;10546583;28;20047;-58
2021/05/27 20:23:48;;;;;;;14.73;7.75;;;17.60;66.90;;;;;;10555073;28;20495;-58
2021/05/27 20:28:49;;;;;;;14.50;8.07;;;17.60;66.80;;;;;;10549672;28;20118;-57
2021/05/27 20:33:50;;;;;;;21.33;8.07;;;17.60;66.80;;;;;;10539058;28;20032;-58
2021/05/27 20:38:51;;;;;;;13.40;6.80;;;17.60;66.70;;;;;;10539217;28;20471;-58
2021/05/27 20:43:51;;;;;;;12.25;7.78;;;17.60;66.70;;;;;;10505491;28;20154;-57
2021/05/27 20:48:52;;;;;;;10.70;6.10;;;17.60;66.70;;;;;;10556594;28;20044;-58
2021/05/27 20:53:53;;;;;;;10.55;6.07;;;17.50;66.60;;;;;;10563157;28;20063;-58
2021/05/27 20:58:55;;;;;;;11.43;5.75;;;17.50;66.70;;;;;;10541165;28;20089;-58
2021/05/27 21:03:56;;;;;;;10.57;6.15;;;17.50;66.60;;;;;;10522491;28;20031;-58
2021/05/27 21:08:56;;;;;;;8.50;5.50;;;17.60;66.50;;;;;;10540723;28;20031;-58
2021/05/27 21:13:57;;;;;;;11.90;6.20;;;17.60;66.40;;;;;;10557185;28;20036;-57
2021/05/27 21:18:58;;;;;;;12.82;4.80;;;17.60;66.40;;;;;;10556266;28;20027;-58
2021/05/27 21:23:58;;;;;;;8.18;5.57;;;17.60;66.30;;;;;;10556647;28;20036;-57
2021/05/27 21:28:59;;;;;;;9.30;5.35;;;17.60;66.20;;;;;;10544060;28;20444;-58
2021/05/27 21:34:00;;;;;;;8.02;5.22;;;17.60;66.10;;;;;;10522466;28;20032;-57
2021/05/27 21:39:00;;;;;;;8.45;5.40;;;17.60;66.10;;;;;;10539382;28;20044;-58
2021/05/27 21:44:01;;;;;;;9.98;5.10;;;17.60;66.10;;;;;;10538518;28;20055;-58
2021/05/27 21:49:02;;;;;;;9.18;4.70;;;17.60;66.10;;;;;;10576165;28;20492;-58
2021/05/27 21:54:04;;;;;;;8.13;4.35;;;17.60;66.10;;;;;;10547545;28;20155;-58
2021/05/27 21:59:04;;;;;;;10.50;5.05;;;17.50;66.00;;;;;;10539271;28;20031;-58
2021/05/27 22:04:06;;;;;;;11.43;4.68;;;17.50;66.00;;;;;;10551357;28;20059;-58
2021/05/27 22:09:10;;;;;;;8.48;4.32;;;17.60;65.90;;;;;;10543259;28;20024;-57
2021/05/27 22:14:10;;;;;;;8.23;4.50;;;17.60;65.80;;;;;;10564092;28;20039;-57
2021/05/27 22:19:12;;;;;;;8.05;4.35;;;17.60;65.70;;;;;;10561823;28;20119;-58
2021/05/27 22:24:13;;;;;;;7.32;4.18;;;17.60;65.70;;;;;;10563343;28;20035;-58
2021/05/27 22:29:14;;;;;;;7.97;4.00;;;17.60;65.60;;;;;;10568431;28;20059;-57
2021/05/27 22:34:15;;;;;;;6.38;3.40;;;17.60;65.60;;;;;;10549571;28;20028;-58
2021/05/27 22:39:16;;;;;;;6.90;3.95;;;17.60;65.60;;;;;;10555658;28;20047;-59
2021/05/27 22:44:16;;;;;;;5.88;3.60;;;17.60;65.60;;;;;;10529031;28;20047;-58
2021/05/27 22:49:17;;;;;;;13.25;4.18;;;17.60;65.50;;;;;;10538245;28;20436;-58
2021/05/27 22:54:18;;;;;;;6.43;3.88;;;17.60;65.40;;;;;;10520202;28;20036;-57
2021/05/27 22:59:18;;;;;;;6.60;3.90;;;17.60;65.40;;;;;;10544637;28;20456;-58
2021/05/27 23:04:19;;;;;;;7.32;3.38;;;17.60;65.40;;;;;;10511109;28;20414;-57
2021/05/27 23:09:20;;;;;;;6.40;3.65;;;17.60;65.50;;;;;;10563733;28;20064;-58
2021/05/27 23:14:21;;;;;;;6.22;3.40;;;17.60;65.40;;;;;;10512452;28;20162;-58
2021/05/27 23:19:22;;;;;;;6.20;2.92;;;17.60;65.30;;;;;;10571786;28;20549;-58
2021/05/27 23:24:22;;;;;;;4.22;2.70;;;17.60;65.20;;;;;;10536215;28;20059;-58
2021/05/27 23:29:23;;;;;;;6.88;3.47;;;17.60;65.20;;;;;;10563285;28;20059;-58
2021/05/27 23:34:24;;;;;;;5.05;2.85;;;17.60;65.20;;;;;;10554938;28;20040;-58
2021/05/27 23:39:24;;;;;;;5.13;2.60;;;17.60;65.10;;;;;;10525608;28;20119;-58
2021/05/27 23:44:25;;;;;;;5.22;3.15;;;17.60;65.10;;;;;;10525850;28;20157;-58
2021/05/27 23:49:26;;;;;;;6.38;2.92;;;17.60;65.00;;;;;;10543751;28;20111;-57
2021/05/27 23:54:27;;;;;;;3.92;2.78;;;17.60;65.00;;;;;;10554417;28;20098;-58
2021/05/27 23:59:28;;;;;;;6.10;3.05;;;17.60;65.00;;;;;;10546108;28;20032;-58
